Time,TemperatureF,DewpointF,PressureIn,WindDirection,WindDirectionDegrees,WindSpeedMPH,WindSpeedGustMPH,Humidity,HourlyPrecipIn,Conditions,Clouds,dailyrainin,SoftwareType,DateUTC
2013-05-09 00:01:00,42.0,28.0,-100.00,NNE,31,11.0,14.0,58,0.00,,,-99.99,,2013-05-09 06:01:00,
2013-05-09 00:11:00,41.0,28.0,-100.00,NNE,32,11.0,13.0,59,0.00,,,-99.99,,2013-05-09 06:11:00,
2013-05-09 00:21:00,41.0,28.0,-100.00,NNE,25,11.0,12.0,60,0.00,,,-99.99,,2013-05-09 06:21:00,
2013-05-09 00:32:00,41.0,28.0,-100.00,NNE,23,7.0,11.0,61,0.00,,,-99.99,,2013-05-09 06:32:00,
2013-05-09 00:41:00,40.0,28.0,-100.00,North,11,10.0,12.0,62,0.00,,,-99.99,,2013-05-09 06:41:00,
2013-05-09 00:52:00,41.0,29.0,-100.00,North,11,12.0,17.0,61,0.00,,,-99.99,,2013-05-09 06:52:00,
2013-05-09 01:01:00,40.0,29.0,-100.00,North,7,9.0,10.0,63,0.00,,,-99.99,,2013-05-09 07:01:00,
2013-05-09 01:12:00,40.0,29.0,-100.00,North,350,10.0,12.0,65,0.00,,,-99.99,,2013-05-09 07:12:00,
2013-05-09 01:21:00,40.0,29.0,-100.00,North,352,9.0,11.0,66,0.00,,,-99.99,,2013-05-09 07:21:00,
2013-05-09 01:31:00,41.0,29.0,-100.00,North,7,12.0,15.0,63,0.00,,,-99.99,,2013-05-09 07:31:00,
2013-05-09 01:42:00,40.0,29.0,-100.00,North,1,10.0,12.0,65,0.00,,,-99.99,,2013-05-09 07:42:00,
2013-05-09 01:52:00,40.0,29.0,-100.00,North,357,11.0,14.0,66,0.00,,,-99.99,,2013-05-09 07:52:00,
2013-05-09 02:02:00,40.0,29.0,-100.00,North,6,11.0,14.0,66,0.00,,,-99.99,,2013-05-09 08:02:00,
2013-05-09 02:11:00,40.0,29.0,-100.00,NNE,14,7.0,11.0,67,0.00,,,-99.99,,2013-05-09 08:11:00,
2013-05-09 02:21:00,40.0,30.0,-100.00,North,10,10.0,12.0,67,0.00,,,-99.99,,2013-05-09 08:21:00,
2013-05-09 02:31:00,39.0,30.0,-100.00,North,1,10.0,12.0,68,0.00,,,-99.99,,2013-05-09 08:31:00,
2013-05-09 02:41:00,39.0,30.0,-100.00,North,10,8.0,9.0,69,0.00,,,-99.99,,2013-05-09 08:41:00,
2013-05-09 02:51:00,39.0,30.0,-100.00,NNE,16,7.0,8.0,69,0.00,,,-99.99,,2013-05-09 08:51:00,
2013-05-09 03:01:00,38.0,29.0,-100.00,NNE,23,7.0,9.0,71,0.00,,,-99.99,,2013-05-09 09:01:00,
2013-05-09 03:11:00,37.0,29.0,-100.00,North,10,8.0,9.0,75,0.00,,,-99.99,,2013-05-09 09:11:00,
2013-05-09 03:21:00,38.0,31.0,-100.00,North,356,9.0,12.0,74,0.00,,,-99.99,,2013-05-09 09:21:00,
2013-05-09 03:32:00,38.0,30.0,-100.00,NNE,21,7.0,9.0,74,0.00,,,-99.99,,2013-05-09 09:32:00,
2013-05-09 03:42:00,36.0,30.0,-100.00,NNW,342,6.0,7.0,77,0.00,,,-99.99,,2013-05-09 09:42:00,
2013-05-09 03:52:00,36.0,30.0,-100.00,NNW,343,6.0,6.0,77,0.00,,,-99.99,,2013-05-09 09:52:00,
2013-05-09 04:02:00,36.0,30.0,-100.00,NNW,344,7.0,9.0,79,0.00,,,-99.99,,2013-05-09 10:02:00,
2013-05-09 04:12:00,37.0,30.0,-100.00,NNW,339,9.0,10.0,75,0.00,,,-99.99,,2013-05-09 10:12:00,
2013-05-09 04:22:00,38.0,30.0,-100.00,NNW,342,9.0,11.0,73,0.00,,,-99.99,,2013-05-09 10:22:00,
2013-05-09 04:33:00,38.0,31.0,-100.00,NNW,343,7.0,9.0,74,0.00,,,-99.99,,2013-05-09 10:33:00,
2013-05-09 04:41:00,39.0,31.0,-100.00,NNW,346,9.0,11.0,72,0.00,,,-99.99,,2013-05-09 10:41:00,
2013-05-09 04:52:00,39.0,31.0,-100.00,NNW,344,9.0,12.0,72,0.00,,,-99.99,,2013-05-09 10:52:00,
2013-05-09 05:02:00,39.0,31.0,-100.00,NNW,346,10.0,12.0,72,0.00,,,-99.99,,2013-05-09 11:02:00,
2013-05-09 05:11:00,39.0,31.0,-100.00,NNW,340,9.0,11.0,72,0.00,,,-99.99,,2013-05-09 11:11:00,
2013-05-09 05:22:00,38.0,31.0,-100.00,NNW,342,9.0,10.0,75,0.00,,,-99.99,,2013-05-09 11:22:00,
2013-05-09 05:32:00,38.0,31.0,-100.00,NNW,346,7.0,9.0,75,0.00,,,-99.99,,2013-05-09 11:32:00,
2013-05-09 05:41:00,37.0,31.0,-100.00,NE,49,4.0,4.0,77,0.00,,,-99.99,,2013-05-09 11:41:00,
2013-05-09 05:51:00,37.0,30.0,-100.00,North,6,4.0,6.0,76,0.00,,,-99.99,,2013-05-09 11:51:00,
2013-05-09 06:01:00,36.0,30.0,-100.00,NNE,16,3.0,4.0,77,0.00,,,-99.99,,2013-05-09 12:01:00,
2013-05-09 06:11:00,35.0,29.0,-100.00,NW,322,1.0,3.0,80,0.00,,,-99.99,,2013-05-09 12:11:00,
2013-05-09 06:21:00,36.0,30.0,-100.00,North,356,2.0,2.0,79,0.00,,,-99.99,,2013-05-09 12:21:00,
2013-05-09 06:31:00,36.0,30.0,-100.00,NNE,32,2.0,2.0,78,0.00,,,-99.99,,2013-05-09 12:31:00,
2013-05-09 06:42:00,35.0,30.0,-100.00,NNW,346,1.0,1.0,80,0.00,,,-99.99,,2013-05-09 12:42:00,
2013-05-09 06:51:00,36.0,30.0,-100.00,NNW,346,1.0,2.0,77,0.00,,,-99.99,,2013-05-09 12:51:00,
2013-05-09 07:01:00,37.0,30.0,-100.00,NNE,14,2.0,2.0,75,0.00,,,-99.99,,2013-05-09 13:01:00,
2013-05-09 07:11:00,37.0,31.0,-100.00,ENE,65,2.0,3.0,77,0.00,,,-99.99,,2013-05-09 13:11:00,
2013-05-09 07:21:00,40.0,31.0,-100.00,NE,51,0.0,1.0,73,0.00,,,-99.99,,2013-05-09 13:21:00,
2013-05-09 07:31:00,40.0,32.0,-100.00,NNW,343,1.0,2.0,73,0.00,,,-99.99,,2013-05-09 13:31:00,
2013-05-09 07:42:00,42.0,31.0,-100.00,NE,38,0.0,0.0,65,0.00,,,-99.99,,2013-05-09 13:42:00,
2013-05-09 07:52:00,45.0,32.0,-100.00,ENE,64,0.0,1.0,61,0.00,,,-99.99,,2013-05-09 13:52:00,
2013-05-09 08:01:00,44.0,30.0,-100.00,NE,40,2.0,2.0,57,0.00,,,-99.99,,2013-05-09 14:01:00,
2013-05-09 08:11:00,45.0,29.0,-100.00,NE,51,2.0,4.0,54,0.00,,,-99.99,,2013-05-09 14:11:00,
2013-05-09 08:21:00,45.0,30.0,-100.00,NE,38,4.0,6.0,54,0.00,,,-99.99,,2013-05-09 14:21:00,
2013-05-09 08:32:00,45.0,29.0,-100.00,NE,42,6.0,9.0,53,0.00,,,-99.99,,2013-05-09 14:32:00,
2013-05-09 08:41:00,46.0,30.0,-100.00,ENE,71,4.0,6.0,54,0.00,,,-99.99,,2013-05-09 14:41:00,
2013-05-09 08:52:00,46.0,29.0,-100.00,North,1,6.0,9.0,50,0.00,,,-99.99,,2013-05-09 14:52:00,
2013-05-09 09:01:00,47.0,28.0,-100.00,NNE,20,6.0,7.0,47,0.00,,,-99.99,,2013-05-09 15:01:00,
2013-05-09 09:11:00,46.0,27.0,-100.00,NNE,32,11.0,15.0,47,0.00,,,-99.99,,2013-05-09 15:11:00,
2013-05-09 09:21:00,47.0,29.0,-100.00,NE,42,7.0,13.0,49,0.00,,,-99.99,,2013-05-09 15:21:00,
2013-05-09 09:33:00,47.0,26.0,-100.00,NNE,20,11.0,13.0,44,0.00,,,-99.99,,2013-05-09 15:33:00,
2013-05-09 09:42:00,47.0,28.0,-100.00,North,360,6.0,9.0,46,0.00,,,-99.99,,2013-05-09 15:42:00,
2013-05-09 09:52:00,48.0,28.0,-100.00,NE,48,7.0,11.0,46,0.00,,,-99.99,,2013-05-09 15:52:00,
2013-05-09 10:03:00,46.0,28.0,-100.00,NNE,13,6.0,11.0,48,0.00,,,-99.99,,2013-05-09 16:03:00,
2013-05-09 10:12:00,48.0,28.0,-100.00,North,6,9.0,11.0,45,0.00,,,-99.99,,2013-05-09 16:12:00,
2013-05-09 10:22:00,49.0,28.0,-100.00,North,3,12.0,17.0,44,0.00,,,-99.99,,2013-05-09 16:22:00,
2013-05-09 10:32:00,48.0,28.0,-100.00,NE,49,12.0,15.0,45,0.00,,,-99.99,,2013-05-09 16:32:00,
2013-05-09 10:41:00,48.0,26.0,-100.00,NE,37,11.0,13.0,42,0.00,,,-99.99,,2013-05-09 16:41:00,
2013-05-09 10:52:00,49.0,25.0,-100.00,NE,40,8.0,12.0,40,0.00,,,-99.99,,2013-05-09 16:52:00,
2013-05-09 11:02:00,49.0,22.0,-100.00,North,6,9.0,12.0,33,0.00,,,-99.99,,2013-05-09 17:02:00,
2013-05-09 11:12:00,49.0,25.0,-100.00,NNW,343,10.0,12.0,39,0.00,,,-99.99,,2013-05-09 17:12:00,
2013-05-09 11:21:00,49.0,23.0,-100.00,NNW,328,8.0,11.0,36,0.00,,,-99.99,,2013-05-09 17:21:00,
2013-05-09 11:32:00,49.0,24.0,-100.00,NNW,344,10.0,14.0,37,0.00,,,-99.99,,2013-05-09 17:32:00,
2013-05-09 11:41:00,51.0,26.0,-100.00,NNE,28,9.0,14.0,37,0.00,,,-99.99,,2013-05-09 17:41:00,
2013-05-09 11:54:00,51.0,25.0,-100.00,NE,51,12.0,17.0,36,0.00,,,-99.99,,2013-05-09 17:54:00,
2013-05-09 12:01:00,51.0,26.0,-100.00,NNE,14,12.0,14.0,38,0.00,,,-99.99,,2013-05-09 18:01:00,
2013-05-09 12:12:00,51.0,26.0,-100.00,NE,48,16.0,20.0,37,0.00,,,-99.99,,2013-05-09 18:12:00,
2013-05-09 12:21:00,51.0,24.0,-100.00,ENE,78,14.0,19.0,35,0.00,,,-99.99,,2013-05-09 18:21:00,
2013-05-09 12:31:00,51.0,26.0,-100.00,NE,45,14.0,16.0,37,0.00,,,-99.99,,2013-05-09 18:31:00,
2013-05-09 12:41:00,51.0,24.0,-100.00,NE,47,11.0,14.0,34,0.00,,,-99.99,,2013-05-09 18:41:00,
2013-05-09 12:52:00,52.0,23.0,-100.00,NE,54,11.0,17.0,33,0.00,,,-99.99,,2013-05-09 18:52:00,
2013-05-09 13:01:00,52.0,25.0,-100.00,NE,51,6.0,14.0,35,0.00,,,-99.99,,2013-05-09 19:01:00,
2013-05-09 13:11:00,52.0,23.0,-100.00,NNE,24,10.0,13.0,31,0.00,,,-99.99,,2013-05-09 19:11:00,
2013-05-09 13:21:00,52.0,24.0,-100.00,NE,52,13.0,16.0,33,0.00,,,-99.99,,2013-05-09 19:21:00,
2013-05-09 13:31:00,52.0,23.0,-100.00,NE,56,13.0,17.0,32,0.00,,,-99.99,,2013-05-09 19:31:00,
2013-05-09 13:41:00,52.0,24.0,-100.00,ENE,72,11.0,14.0,33,0.00,,,-99.99,,2013-05-09 19:41:00,
2013-05-09 13:52:00,53.0,23.0,-100.00,NE,52,14.0,20.0,30,0.00,,,-99.99,,2013-05-09 19:52:00,
2013-05-09 14:01:00,53.0,21.0,-100.00,NNW,343,9.0,12.0,28,0.00,,,-99.99,,2013-05-09 20:01:00,
2013-05-09 14:11:00,54.0,25.0,-100.00,NE,52,9.0,16.0,32,0.00,,,-99.99,,2013-05-09 20:11:00,
2013-05-09 14:21:00,55.0,24.0,-100.00,NNE,30,7.0,11.0,29,0.00,,,-99.99,,2013-05-09 20:21:00,
2013-05-09 14:32:00,54.0,23.0,-100.00,NE,41,11.0,16.0,29,0.00,,,-99.99,,2013-05-09 20:32:00,
2013-05-09 14:42:00,54.0,22.0,-100.00,NE,51,9.0,12.0,29,0.00,,,-99.99,,2013-05-09 20:42:00,
2013-05-09 14:52:00,54.0,22.0,-100.00,NE,51,4.0,9.0,28,0.00,,,-99.99,,2013-05-09 20:52:00,
2013-05-09 15:01:00,55.0,23.0,-100.00,ENE,62,10.0,16.0,28,0.00,,,-99.99,,2013-05-09 21:01:00,
2013-05-09 15:11:00,54.0,22.0,-100.00,ENE,58,12.0,16.0,28,0.00,,,-99.99,,2013-05-09 21:11:00,
2013-05-09 15:22:00,54.0,21.0,-100.00,North,10,6.0,11.0,27,0.00,,,-99.99,,2013-05-09 21:22:00,
2013-05-09 15:32:00,54.0,22.0,-100.00,NE,42,9.0,11.0,28,0.00,,,-99.99,,2013-05-09 21:32:00,
2013-05-09 15:42:00,56.0,23.0,-100.00,NE,40,11.0,16.0,28,0.00,,,-99.99,,2013-05-09 21:42:00,
2013-05-09 15:52:00,55.0,18.0,-100.00,ENE,59,13.0,16.0,23,0.00,,,-99.99,,2013-05-09 21:52:00,
2013-05-09 16:02:00,55.0,13.0,-100.00,North,4,14.0,17.0,19,0.00,,,-99.99,,2013-05-09 22:02:00,
2013-05-09 16:12:00,55.0,17.0,-100.00,North,357,11.0,15.0,21,0.00,,,-99.99,,2013-05-09 22:12:00,
2013-05-09 16:22:00,55.0,19.0,-100.00,North,10,13.0,19.0,24,0.00,,,-99.99,,2013-05-09 22:22:00,
2013-05-09 16:32:00,55.0,20.0,-100.00,North,8,15.0,19.0,25,0.00,,,-99.99,,2013-05-09 22:32:00,
2013-05-09 16:42:00,56.0,23.0,-100.00,NNE,14,13.0,19.0,28,0.00,,,-99.99,,2013-05-09 22:42:00,
2013-05-09 16:52:00,55.0,17.0,-100.00,North,354,7.0,10.0,22,0.00,,,-99.99,,2013-05-09 22:52:00,
2013-05-09 17:02:00,55.0,21.0,-100.00,North,6,12.0,17.0,27,0.00,,,-99.99,,2013-05-09 23:02:00,
2013-05-09 17:11:00,55.0,21.0,-100.00,North,350,16.0,19.0,26,0.00,,,-99.99,,2013-05-09 23:11:00,
2013-05-09 17:21:00,54.0,24.0,-100.00,North,360,14.0,23.0,31,0.00,,,-99.99,,2013-05-09 23:21:00,
2013-05-09 17:32:00,54.0,24.0,-100.00,NNE,14,21.0,26.0,30,0.00,,,-99.99,,2013-05-09 23:32:00,
2013-05-09 17:42:00,53.0,24.0,-100.00,North,360,22.0,27.0,33,0.00,,,-99.99,,2013-05-09 23:42:00,
2013-05-09 17:52:00,52.0,25.0,-100.00,NNW,340,20.0,26.0,34,0.00,,,-99.99,,2013-05-09 23:52:00,
2013-05-09 18:01:00,52.0,25.0,-100.00,NNW,343,17.0,21.0,35,0.00,,,-99.99,,2013-05-10 00:01:00,
2013-05-09 18:11:00,51.0,23.0,-100.00,NNW,343,16.0,19.0,33,0.00,,,-99.99,,2013-05-10 00:11:00,
2013-05-09 18:21:00,52.0,24.0,-100.00,NW,320,11.0,15.0,32,0.00,,,-99.99,,2013-05-10 00:21:00,
2013-05-09 18:31:00,52.0,22.0,-100.00,NNW,329,12.0,16.0,30,0.00,,,-99.99,,2013-05-10 00:31:00,
2013-05-09 18:42:00,53.0,20.0,-100.00,North,6,13.0,19.0,27,0.00,,,-99.99,,2013-05-10 00:42:00,
2013-05-09 18:51:00,53.0,22.0,-100.00,NNW,337,14.0,19.0,29,0.00,,,-99.99,,2013-05-10 00:51:00,
2013-05-09 19:01:00,52.0,22.0,-100.00,North,353,14.0,18.0,30,0.00,,,-99.99,,2013-05-10 01:01:00,
2013-05-09 19:11:00,52.0,22.0,-100.00,NNW,342,15.0,17.0,31,0.00,,,-99.99,,2013-05-10 01:11:00,
2013-05-09 19:21:00,52.0,22.0,-100.00,North,353,11.0,13.0,31,0.00,,,-99.99,,2013-05-10 01:21:00,
2013-05-09 19:31:00,52.0,22.0,-100.00,NNE,17,12.0,14.0,31,0.00,,,-99.99,,2013-05-10 01:31:00,
2013-05-09 19:41:00,51.0,22.0,-100.00,North,11,11.0,16.0,31,0.00,,,-99.99,,2013-05-10 01:41:00,
2013-05-09 19:52:00,51.0,22.0,-100.00,NNE,18,11.0,15.0,32,0.00,,,-99.99,,2013-05-10 01:52:00,
2013-05-09 20:01:00,50.0,23.0,-100.00,NNE,17,10.0,12.0,33,0.00,,,-99.99,,2013-05-10 02:01:00,
2013-05-09 20:11:00,50.0,22.0,-100.00,North,7,7.0,9.0,34,0.00,,,-99.99,,2013-05-10 02:11:00,
2013-05-09 20:21:00,49.0,24.0,-100.00,North,0,3.0,4.0,38,0.00,,,-99.99,,2013-05-10 02:21:00,
2013-05-09 20:31:00,48.0,24.0,-100.00,North,6,6.0,7.0,37,0.00,,,-99.99,,2013-05-10 02:31:00,
2013-05-09 20:42:00,47.0,24.0,-100.00,North,357,5.0,7.0,40,0.00,,,-99.99,,2013-05-10 02:42:00,
2013-05-09 20:52:00,47.0,24.0,-100.00,NW,311,4.0,4.0,40,0.00,,,-99.99,,2013-05-10 02:52:00,
2013-05-09 21:01:00,47.0,25.0,-100.00,NW,326,6.0,7.0,42,0.00,,,-99.99,,2013-05-10 03:01:00,
2013-05-09 21:11:00,46.0,27.0,-100.00,NNW,339,9.0,12.0,46,0.00,,,-99.99,,2013-05-10 03:11:00,
2013-05-09 21:21:00,46.0,28.0,-100.00,NNW,328,10.0,12.0,49,0.00,,,-99.99,,2013-05-10 03:21:00,
2013-05-09 21:32:00,46.0,29.0,-100.00,NW,322,14.0,19.0,50,0.00,,,-99.99,,2013-05-10 03:32:00,
2013-05-09 21:42:00,46.0,29.0,-100.00,NNW,329,14.0,16.0,51,0.00,,,-99.99,,2013-05-10 03:42:00,
2013-05-09 21:52:00,45.0,29.0,-100.00,NNW,332,12.0,15.0,52,0.00,,,-99.99,,2013-05-10 03:52:00,
2013-05-09 22:02:00,46.0,29.0,-100.00,NNW,337,14.0,17.0,51,0.00,,,-99.99,,2013-05-10 04:02:00,
2013-05-09 22:12:00,45.0,29.0,-100.00,NNW,344,14.0,16.0,52,0.00,,,-99.99,,2013-05-10 04:12:00,
2013-05-09 22:22:00,45.0,29.0,-100.00,NNE,13,12.0,15.0,53,0.00,,,-99.99,,2013-05-10 04:22:00,
2013-05-09 22:33:00,44.0,31.0,-100.00,NNE,21,13.0,14.0,58,0.00,,,-99.99,,2013-05-10 04:33:00,
2013-05-09 22:42:00,45.0,30.0,-100.00,North,349,9.0,12.0,55,0.00,,,-99.99,,2013-05-10 04:42:00,
2013-05-09 22:52:00,45.0,29.0,-100.00,NNW,339,18.0,22.0,54,0.00,,,-99.99,,2013-05-10 04:52:00,
2013-05-09 23:02:00,45.0,30.0,-100.00,North,1,14.0,18.0,56,0.00,,,-99.99,,2013-05-10 05:02:00,
2013-05-09 23:12:00,45.0,29.0,-100.00,NNW,335,12.0,15.0,54,0.00,,,-99.99,,2013-05-10 05:12:00,
2013-05-09 23:21:00,45.0,29.0,-100.00,NNW,330,13.0,16.0,53,0.00,,,-99.99,,2013-05-10 05:21:00,
2013-05-09 23:32:00,45.0,29.0,-100.00,NW,323,12.0,15.0,51,0.00,,,-99.99,,2013-05-10 05:32:00,
2013-05-09 23:42:00,45.0,27.0,-100.00,NW,318,11.0,12.0,49,0.00,,,-99.99,,2013-05-10 05:42:00,
2013-05-09 23:52:00,46.0,26.0,-100.00,NNW,347,14.0,21.0,45,0.00,,,-99.99,,2013-05-10 05:52:00,